Weather at Dublin Municipal Airport

Public forecast

Using degrees Fahrenheit for public forecast. Weather courtesy of forecast.io.

Closest aviation weather report (METAR) to Dublin Municipal Airport

Closest report is Stephenville Clark Regional Airport, 11.6 nm (21.5 km) NE. Retrieved 2020/09/20 19:35 UTC (0 seconds ago):

KSEP 201935Z AUTO 05007KT 7SM CLR 26/09 A3015 RMK AO2 T02600092

Closest aviation forecast (TAF) to Dublin Municipal Airport

Forecast is more than 12 hours old.

Closest forecast is NAS Fort Worth JRB/Carswell Field, 61.5 nm (113.8 km) NE. Retrieved 2014/12/04 15:30 UTC (6 years ago):

TAF KNFW 041500Z 0415/0515 16009KT 9999 8000 BR BKN015 OVC060 QNH3004INS TEMPO 0415/0420 3200 -DZ BR BKN009 OVC020 FM050000 16009KT 9999 BKN010 OVC040 QNH3010INS FM051200 17012KT 9999 BKN040 OVC100 QNH3012INS T24/0423Z T13/0512Z FN20046